MMCS/CJS METAR and TAF weather

Enter ICAO airport designator
Station Type Date Time Source
MMCS METAR 2021/09/28 12:40 UTC NOAA

MMCS 281240Z 21005KT 10SM FEW050 SCT090 16/13 A3004 RMK 60028 8/430 RTS


Station Type Date Time Source
MMCS Decoded METAR 2021/09/28 12:40 UTC NOAA

Ciudad Juarez International , Mexico (MMCS) 31-38N 106-26W
Sep 28, 2021 - 08:40 AM EDT / 2021.09.28 1240 UTC
Wind: from the SSW (210 degrees) at 6 MPH (5 KT):0
Visibility: 10 mile(s):0
Sky conditions: partly cloudy
Temperature: 60 F (16 C)
Dew Point: 55 F (13 C)
Relative Humidity: 82%
Pressure (altimeter): 30.04 in. Hg (1017 hPa)
ob: MMCS 281240Z 21005KT 10SM FEW050 SCT090 16/13 A3004 RMK 60028 8/430 RTS
cycle: 12

Station Type Date Time Source
MMCS TAF 2021/09/28 06:22 UTC NOAA

TAF MMCS 280415Z 2806/2906 00000KT P6SM SKC
FM281700 24010KT P6SM SKC
FM290300 32005KT P6SM SCT040

Example: see airport list